Main page
METAR-TAF:

METAR-TAF

Airports :

Southampton Airport

Southampton, England

latitude: 50-54N, longitude: 001-24W, elevation: 9 m

Current weather observation

The report was made 16 minutes ago, at 20:50 UTC
Wind 2 kt from variable directions
Temperature 5°C
Humidity 75%
Pressure 1038 hPa
Visibility 10 km or more
Overcast at a height of 1900 ft

METAR: EGHI 222050Z VRB02KT 9999 OVC019 05/01 Q1038

Time: 21:06 (21:06 UTC)

Forecast

The report was made 1 hour and 7 minutes ago, at 19:59 UTC
Forecast valid from 22 at 21 UTC to 22 at 23 UTC
Wind 3 kt from the North
Visibility 10 km or more
Broken clouds at a height of 2000 ft
Probability 30% :
Temporary
from 22 at 21 UTC to 22 at 23 UTC
Visibility: 8000 m

TAF: EGHI 221959Z 2221/2223 35003KT 9999 BKN020 PROB30 TEMPO 2221/2223 8000

Weather observations and forecasts of more than 4000 airports (METAR and TAF reports).

The available stations are represented by yellow and red dots on the map.

Hover mouse over dot to see the name of the station.

Then click to see weather observations and forecasts.

To change the map : click on the green buttons with a black cross to zoom in, on the green button with a dash to zoom out, or on the green arrows for adjacent maps.


METAR-TAF: